Check out our new BloomSky Weather System.

Active alerts


No alerts


Thunder radar  blitzortung!


Rain radar more information rain snow radar


Visit our other weather sites:

Template documentation
and downloads

And another site



Weather Underground History page Text

Daily Summary for January 27, 2017 Units:  Metric    English   Both
« Previous Day
Next Day »
Daily Weekly Monthly Yearly Custom
  High: Low: Average:
Temperature: 13.7 °C 4.7 °C 9 °C
Dew Point: 1.4 °C -4 °C -0.9 °C
Humidity: 76 % 30 % 52 %
Wind Speed: 11.3 km/h 0 km/h 1.9 km/h
Wind Gust: 20.9 km/h - -
Wind:- - SSW
Pressure: 1028.7 hPa 1024.6 hPa -
Precipitation: 0 mm    
Historical Graphs
 
 
Tabular Data for January 27, 2017
Time Temperature Dew Point Pressure Wind Wind Speed Wind Gust Humidity Rainfall Rate (Hourly)
00:02 5.2 °C 1.3 °C 1026 hPa Calm     76 % 0 mm
00:07 5.2 °C 1.3 °C 1026 hPa Calm     76 % 0 mm
00:12 5.2 °C 1.3 °C 1026 hPa Calm     76 % 0 mm
00:17 5.2 °C 1.3 °C 1025.6 hPa Calm     76 % 0 mm
00:22 5.2 °C 1.3 °C 1025.6 hPa Calm     76 % 0 mm
00:27 5.3 °C 1.4 °C 1025.6 hPa Calm     76 % 0 mm
00:32 5.3 °C 1.4 °C 1025.6 hPa Calm   1.6 km/h 76 % 0 mm
00:37 5.3 °C 1.4 °C 1025.6 hPa Calm   1.6 km/h 76 % 0 mm
00:42 5.2 °C 1.3 °C 1025.6 hPa North 1.6 km/h 1.6 km/h 76 % 0 mm
00:47 5.2 °C 1.1 °C 1025.3 hPa Calm   1.6 km/h 75 % 0 mm
00:52 5.3 °C 1.2 °C 1025.3 hPa Calm   1.6 km/h 75 % 0 mm
00:57 5.3 °C 1 °C 1025.3 hPa Calm   1.6 km/h 74 % 0 mm
01:03 5.3 °C 0.9 °C 1025.3 hPa North 1.6 km/h 1.6 km/h 73 % 0 mm
01:08 5.5 °C 0.9 °C 1025.3 hPa Calm   1.6 km/h 72 % 0 mm
01:13 5.6 °C 0.8 °C 1025.3 hPa NNW 1.6 km/h 1.6 km/h 71 % 0 mm
01:18 5.6 °C 0.8 °C 1025.3 hPa Calm   3.2 km/h 71 % 0 mm
01:23 5.6 °C 0.8 °C 1025.3 hPa Calm   4.8 km/h 71 % 0 mm
01:28 5.6 °C 0.8 °C 1025.3 hPa NNW 1.6 km/h 4.8 km/h 71 % 0 mm
01:33 5.6 °C 0.6 °C 1025.3 hPa Calm   4.8 km/h 70 % 0 mm
01:38 5.7 °C 0.7 °C 1025.6 hPa Calm   3.2 km/h 70 % 0 mm
01:43 5.7 °C 0.7 °C 1025.3 hPa Calm   3.2 km/h 70 % 0 mm
01:48 5.6 °C 0.6 °C 1025.3 hPa Calm   3.2 km/h 70 % 0 mm
01:53 5.5 °C 0.5 °C 1025.3 hPa Calm   3.2 km/h 70 % 0 mm
01:58 5.4 °C 0.4 °C 1025.6 hPa Calm   3.2 km/h 70 % 0 mm
02:03 5.4 °C 0.2 °C 1025.3 hPa Calm   1.6 km/h 69 % 0 mm
02:08 5.7 °C 0.3 °C 1025.3 hPa North 1.6 km/h 1.6 km/h 68 % 0 mm
02:13 5.8 °C 0.1 °C 1025.3 hPa Calm   4.8 km/h 67 % 0 mm
02:18 5.9 °C 0 °C 1025.3 hPa NNE 1.6 km/h 4.8 km/h 66 % 0 mm
02:23 6.1 °C 0 °C 1025.3 hPa Calm   6.4 km/h 65 % 0 mm
02:28 6.2 °C -0.1 °C 1025.3 hPa Calm   6.4 km/h 64 % 0 mm
02:33 6.3 °C 0 °C 1025.3 hPa Calm   9.7 km/h 64 % 0 mm
02:38 6.4 °C -0.1 °C 1025.3 hPa Calm   9.7 km/h 63 % 0 mm
02:43 6.4 °C -0.1 °C 1024.9 hPa North 3.2 km/h 9.7 km/h 63 % 0 mm
02:48 6.4 °C -0.1 °C 1024.9 hPa NW 1.6 km/h 6.4 km/h 63 % 0 mm
02:53 6.4 °C -0.1 °C 1024.9 hPa NNW 3.2 km/h 6.4 km/h 63 % 0 mm
02:58 6.3 °C -0.2 °C 1024.9 hPa NNW 1.6 km/h 6.4 km/h 63 % 0 mm
03:03 6.4 °C 0.1 °C 1024.6 hPa NW 1.6 km/h 12.9 km/h 64 % 0 mm
03:08 6.3 °C 0 °C 1024.9 hPa NW 1.6 km/h 12.9 km/h 64 % 0 mm
03:13 6.3 °C 0 °C 1024.9 hPa NW 4.8 km/h 12.9 km/h 64 % 0 mm
03:18 6.3 °C 0.2 °C 1024.6 hPa Calm   8 km/h 65 % 0 mm
03:23 6.2 °C 0.1 °C 1024.6 hPa NNW 1.6 km/h 8 km/h 65 % 0 mm
03:28 6.2 °C 0.1 °C 1024.9 hPa Calm   8 km/h 65 % 0 mm
03:33 6.2 °C 0.3 °C 1024.9 hPa NW 1.6 km/h 8 km/h 66 % 0 mm
03:38 6.1 °C 0.4 °C 1024.9 hPa NNW 1.6 km/h 6.4 km/h 67 % 0 mm
03:43 6.1 °C 0.4 °C 1024.9 hPa NNW 1.6 km/h 6.4 km/h 67 % 0 mm
03:48 6.1 °C 0.4 °C 1024.9 hPa NW 1.6 km/h 6.4 km/h 67 % 0 mm
03:53 6.1 °C 0.4 °C 1024.9 hPa WNW 3.2 km/h 6.4 km/h 67 % 0 mm
03:58 6.1 °C 0.4 °C 1024.9 hPa NNW 1.6 km/h 8 km/h 67 % 0 mm
04:03 6.1 °C 0.4 °C 1025.3 hPa Calm   8 km/h 67 % 0 mm
04:08 6 °C 0.3 °C 1025.3 hPa NW 1.6 km/h 8 km/h 67 % 0 mm
04:14 6 °C 0.5 °C 1025.3 hPa WNW 1.6 km/h 6.4 km/h 68 % 0 mm
04:19 5.9 °C 0.4 °C 1025.3 hPa NW 1.6 km/h 6.4 km/h 68 % 0 mm
04:24 5.9 °C 0.4 °C 1025.3 hPa NW 1.6 km/h 6.4 km/h 68 % 0 mm
04:29 5.9 °C 0.4 °C 1025.3 hPa North 3.2 km/h 6.4 km/h 68 % 0 mm
04:34 5.8 °C 0.4 °C 1025.3 hPa NNE 1.6 km/h 6.4 km/h 68 % 0 mm
04:39 5.8 °C 0.4 °C 1025.6 hPa NW 3.2 km/h 6.4 km/h 68 % 0 mm
04:44 5.8 °C 0.6 °C 1025.6 hPa Calm   6.4 km/h 69 % 0 mm
04:49 5.7 °C 0.5 °C 1025.6 hPa North 1.6 km/h 6.4 km/h 69 % 0 mm
04:54 5.7 °C 0.5 °C 1025.6 hPa NNE 3.2 km/h 6.4 km/h 69 % 0 mm
04:59 5.7 °C 0.5 °C 1025.6 hPa NNW 3.2 km/h 6.4 km/h 69 % 0 mm
05:04 5.7 °C 0.7 °C 1025.6 hPa North 1.6 km/h 6.4 km/h 70 % 0 mm
05:09 5.7 °C 0.7 °C 1026 hPa NNW 3.2 km/h 6.4 km/h 70 % 0 mm
05:14 5.6 °C 0.6 °C 1026 hPa Calm   6.4 km/h 70 % 0 mm
05:19 5.6 °C 0.6 °C 1026 hPa ENE 6.4 km/h 6.4 km/h 70 % 0 mm
05:24 5.7 °C 0.7 °C 1026 hPa NNW 6.4 km/h 9.7 km/h 70 % 0 mm
05:29 5.7 °C 0.7 °C 1026 hPa NNW 3.2 km/h 9.7 km/h 70 % 0 mm
05:34 5.8 °C 0.6 °C 1026 hPa Calm   12.9 km/h 69 % 0 mm
05:39 5.7 °C 0.5 °C 1026.3 hPa Calm   12.9 km/h 69 % 0 mm
05:44 5.7 °C 0.7 °C 1026.3 hPa ENE 1.6 km/h 12.9 km/h 70 % 0 mm
05:49 5.6 °C 0.6 °C 1026.3 hPa Calm   8 km/h 70 % 0 mm
05:54 5.6 °C 0.6 °C 1026.3 hPa Calm   6.4 km/h 70 % 0 mm
06:04 5.3 °C 0.7 °C 1026.6 hPa Calm   1.6 km/h 72 % 0 mm
06:09 5.2 °C 0.6 °C 1026.6 hPa North 1.6 km/h 3.2 km/h 72 % 0 mm
06:14 5.1 °C 0.7 °C 1026.6 hPa Calm   3.2 km/h 73 % 0 mm
06:19 4.9 °C 0.7 °C 1026.3 hPa NNW 1.6 km/h 3.2 km/h 74 % 0 mm
06:24 4.8 °C 0.6 °C 1026.6 hPa Calm   3.2 km/h 74 % 0 mm
06:29 4.8 °C 0.6 °C 1026.6 hPa Calm   3.2 km/h 74 % 0 mm
06:34 4.7 °C 0.5 °C 1026.6 hPa Calm   3.2 km/h 74 % 0 mm
06:39 4.7 °C 0.6 °C 1026.6 hPa Calm   3.2 km/h 75 % 0 mm
06:44 4.7 °C 0.6 °C 1026.6 hPa Calm   4.8 km/h 75 % 0 mm
06:49 4.8 °C 0.6 °C 1026.6 hPa NNW 4.8 km/h 6.4 km/h 74 % 0 mm
06:59 4.9 °C 0.5 °C 1026.6 hPa ENE 3.2 km/h 8 km/h 73 % 0 mm
07:04 4.9 °C 0.5 °C 1026.6 hPa Calm   8 km/h 73 % 0 mm
07:09 5.1 °C 0.5 °C 1027 hPa North 1.6 km/h 4.8 km/h 72 % 0 mm
07:15 5.2 °C 0.4 °C 1027 hPa NNE 4.8 km/h 9.7 km/h 71 % 0 mm
07:20 5.3 °C 0.5 °C 1026.6 hPa West 6.4 km/h 11.3 km/h 71 % 0 mm
07:25 5.3 °C 0.3 °C 1027 hPa North 6.4 km/h 11.3 km/h 70 % 0 mm
07:30 5.4 °C 0.2 °C 1027 hPa NNE 3.2 km/h 11.3 km/h 69 % 0 mm
07:35 5.4 °C 0 °C 1027 hPa NNW 4.8 km/h 12.9 km/h 68 % 0 mm
07:40 5.5 °C -0.1 °C 1027 hPa NNE 9.7 km/h 14.5 km/h 67 % 0 mm
07:45 5.6 °C -0.3 °C 1027 hPa NE 4.8 km/h 14.5 km/h 66 % 0 mm
07:50 5.8 °C -0.3 °C 1027 hPa NW 1.6 km/h 14.5 km/h 65 % 0 mm
07:55 5.9 °C -0.6 °C 1027 hPa NNE 4.8 km/h 14.5 km/h 63 % 0 mm
08:00 6.1 °C -0.6 °C 1027 hPa NNE 4.8 km/h 12.9 km/h 62 % 0 mm
08:05 6.2 °C -0.5 °C 1027.3 hPa NNW 1.6 km/h 9.7 km/h 62 % 0 mm
08:10 6.3 °C -0.7 °C 1027.3 hPa Calm   9.7 km/h 61 % 0 mm
08:15 6.4 °C -0.8 °C 1027.7 hPa NNE 1.6 km/h 9.7 km/h 60 % 0 mm
08:20 6.5 °C -0.7 °C 1027.7 hPa East 1.6 km/h 6.4 km/h 60 % 0 mm
08:25 6.6 °C -0.8 °C 1027.7 hPa NNW 3.2 km/h 6.4 km/h 59 % 0 mm
08:30 6.6 °C -1.1 °C 1027.7 hPa NNE 8 km/h 8 km/h 58 % 0 mm
08:35 6.7 °C -1 °C 1027.7 hPa Calm   8 km/h 58 % 0 mm
08:40 6.8 °C -0.7 °C 1027.7 hPa NNE 3.2 km/h 8 km/h 59 % 0 mm
08:45 6.9 °C -1 °C 1027.7 hPa NNW 3.2 km/h 8 km/h 57 % 0 mm
08:50 6.9 °C -1 °C 1027.7 hPa Calm   8 km/h 57 % 0 mm
08:55 7.1 °C -0.8 °C 1028 hPa NNE 3.2 km/h 8 km/h 57 % 0 mm
09:00 7.1 °C -1.1 °C 1028 hPa Calm   8 km/h 56 % 0 mm
09:05 7.2 °C -1 °C 1028 hPa ENE 3.2 km/h 8 km/h 56 % 0 mm
09:06 7.2 °C -1 °C 1028 hPa North 1.6 km/h 8 km/h 56 % 0 mm
09:11 7.3 °C -1.1 °C 1028.3 hPa ENE 3.2 km/h 9.7 km/h 55 % 0 mm
09:16 7.4 °C -1.1 °C 1028.3 hPa NW 1.6 km/h 9.7 km/h 55 % 0 mm
09:21 7.5 °C -1.2 °C 1028.3 hPa WNW 1.6 km/h 9.7 km/h 54 % 0 mm
09:23 7.6 °C -1.1 °C 1028 hPa WNW 3.2 km/h 9.7 km/h 54 % 0 mm
09:28 7.7 °C -1 °C 1028.3 hPa NE 6.4 km/h 9.7 km/h 54 % 0 mm
09:33 7.9 °C -0.8 °C 1028.3 hPa NNW 1.6 km/h 9.7 km/h 54 % 0 mm
09:38 8.1 °C -0.9 °C 1028.3 hPa Calm   9.7 km/h 53 % 0 mm
09:43 8.2 °C -1.1 °C 1028.3 hPa NNW 1.6 km/h 9.7 km/h 52 % 0 mm
09:48 8.3 °C -1.5 °C 1028.7 hPa East 3.2 km/h 9.7 km/h 50 % 0 mm
09:59 8.8 °C -1.3 °C 1028.7 hPa North 6.4 km/h 9.7 km/h 49 % 0 mm
10:04 9 °C -1.4 °C 1028.7 hPa NE 9.7 km/h 9.7 km/h 48 % 0 mm
10:09 9.1 °C -1.9 °C 1028.7 hPa NNW 3.2 km/h 16.1 km/h 46 % 0 mm
10:14 9.3 °C -2 °C 1028.7 hPa North 9.7 km/h 16.1 km/h 45 % 0 mm
10:19 9.4 °C -1.9 °C 1028.7 hPa NE 3.2 km/h 16.1 km/h 45 % 0 mm
10:24 9.6 °C -1.8 °C 1028.7 hPa NW 4.8 km/h 16.1 km/h 45 % 0 mm
10:29 9.8 °C -1.6 °C 1028.7 hPa NNW 1.6 km/h 12.9 km/h 45 % 0 mm
10:34 10.1 °C -1.6 °C 1028.3 hPa Calm   11.3 km/h 44 % 0 mm
10:39 10.2 °C -2.1 °C 1028.3 hPa NNW 4.8 km/h 9.7 km/h 42 % 0 mm
10:44 10.2 °C -2.1 °C 1028.3 hPa North 6.4 km/h 20.9 km/h 42 % 0 mm
10:49 10.3 °C -1.7 °C 1028.3 hPa NW 3.2 km/h 20.9 km/h 43 % 0 mm
10:54 10.6 °C -1.5 °C 1028.3 hPa East 1.6 km/h 20.9 km/h 43 % 0 mm
10:59 10.6 °C -1.8 °C 1028.3 hPa NW 1.6 km/h 12.9 km/h 42 % 0 mm
11:04 10.8 °C -1.6 °C 1028.3 hPa Calm   12.9 km/h 42 % 0 mm
11:09 11.1 °C -1.7 °C 1028.3 hPa ENE 8 km/h 12.9 km/h 41 % 0 mm
11:14 11.3 °C -1.5 °C 1028 hPa ENE 6.4 km/h 12.9 km/h 41 % 0 mm
11:19 11.5 °C -1.3 °C 1028 hPa NE 6.4 km/h 12.9 km/h 41 % 0 mm
11:24 11.6 °C -1.9 °C 1028 hPa ENE 3.2 km/h 12.9 km/h 39 % 0 mm
11:29 11.8 °C -1.4 °C 1027.7 hPa North 4.8 km/h 17.7 km/h 40 % 0 mm
11:34 12.1 °C -1.4 °C 1028 hPa NE 4.8 km/h 17.7 km/h 39 % 0 mm
11:44 12.2 °C -2.1 °C 1027.7 hPa West 4.8 km/h 12.9 km/h 37 % 0 mm
11:49 12.2 °C -2.4 °C 1027.7 hPa Calm   12.9 km/h 36 % 0 mm
11:54 12.4 °C -2.3 °C 1027.7 hPa North 3.2 km/h 17.7 km/h 36 % 0 mm
11:59 12.5 °C -2.2 °C 1027.3 hPa NNW 9.7 km/h 17.7 km/h 36 % 0 mm
12:04 12.6 °C -2.1 °C 1027.7 hPa NW 1.6 km/h 17.7 km/h 36 % 0 mm
12:09 12.8 °C -2.3 °C 1027.3 hPa NNW 8 km/h 12.9 km/h 35 % 0 mm
12:14 12.9 °C -2.2 °C 1027.3 hPa NE 3.2 km/h 12.9 km/h 35 % 0 mm
12:19 13.1 °C -2.4 °C 1027.3 hPa North 4.8 km/h 14.5 km/h 34 % 0 mm
12:24 13.2 °C -1.6 °C 1027.3 hPa East 1.6 km/h 14.5 km/h 36 % 0 mm
12:29 13.3 °C -2.2 °C 1027.3 hPa East 3.2 km/h 14.5 km/h 34 % 0 mm
12:34 13.3 °C -2.2 °C 1027.3 hPa ENE 1.6 km/h 11.3 km/h 34 % 0 mm
12:39 13.1 °C -2 °C 1027.3 hPa NE 3.2 km/h 11.3 km/h 35 % 0 mm
12:44 13.2 °C -2.3 °C 1027 hPa NE 3.2 km/h 11.3 km/h 34 % 0 mm
12:50 13.2 °C -2.3 °C 1026.6 hPa NE 9.7 km/h 11.3 km/h 34 % 0 mm
12:55 13.3 °C -2.6 °C 1026.6 hPa NNW 3.2 km/h 11.3 km/h 33 % 0 mm
13:00 13.2 °C -4 °C 1026.6 hPa NW 3.2 km/h 9.7 km/h 30 % 0 mm
13:05 13.2 °C -3.6 °C 1026.6 hPa NNW 3.2 km/h 9.7 km/h 31 % 0 mm
13:10 13.2 °C -3.6 °C 1026.6 hPa East 3.2 km/h 9.7 km/h 31 % 0 mm
13:15 13.4 °C -3 °C 1026.6 hPa NNW 3.2 km/h 9.7 km/h 32 % 0 mm
13:20 13.4 °C -3.8 °C 1026.6 hPa NNW 4.8 km/h 9.7 km/h 30 % 0 mm
13:25 13.3 °C -3.5 °C 1026.3 hPa North 1.6 km/h 12.9 km/h 31 % 0 mm
13:30 13.2 °C -3.6 °C 1026.3 hPa NNE 3.2 km/h 12.9 km/h 31 % 0 mm
13:35 13.2 °C -3.1 °C 1026 hPa Calm   12.9 km/h 32 % 0 mm
13:40 13.4 °C -3.8 °C 1026 hPa ENE 3.2 km/h 11.3 km/h 30 % 0 mm
13:45 13.4 °C -3 °C 1026 hPa North 1.6 km/h 9.7 km/h 32 % 0 mm
13:50 13.4 °C -3.8 °C 1026 hPa ENE 11.3 km/h 17.7 km/h 30 % 0 mm
13:55 13.4 °C -3.8 °C 1026 hPa NW 8 km/h 17.7 km/h 30 % 0 mm
14:00 13.4 °C -3.8 °C 1025.6 hPa WNW 8 km/h 17.7 km/h 30 % 0 mm
14:05 13.6 °C -3.7 °C 1025.6 hPa NNW 8 km/h 14.5 km/h 30 % 0 mm
14:10 13.7 °C -3.6 °C 1025.6 hPa NW 8 km/h 12.9 km/h 30 % 0 mm
14:15 13.6 °C -3.7 °C 1025.3 hPa NE 4.8 km/h 11.3 km/h 30 % 0 mm
14:25 13.6 °C -3.7 °C 1025.3 hPa NE 4.8 km/h 12.9 km/h 30 % 0 mm
14:30 13.6 °C -3.2 °C 1025.3 hPa ENE 4.8 km/h 12.9 km/h 31 % 0 mm
14:35 13.4 °C -3.4 °C 1025.3 hPa WNW 6.4 km/h 9.7 km/h 31 % 0 mm
14:40 13.3 °C -3.1 °C 1025.3 hPa NNE 3.2 km/h 9.7 km/h 32 % 0 mm
14:45 13.3 °C -3.1 °C 1025.3 hPa NW 4.8 km/h 9.7 km/h 32 % 0 mm
14:50 13.1 °C -3.7 °C 1025.3 hPa NNE 4.8 km/h 9.7 km/h 31 % 0 mm
14:55 13.2 °C -3.1 °C 1024.9 hPa NW 4.8 km/h 9.7 km/h 32 % 0 mm
15:05 13 °C -3.3 °C 1024.9 hPa NE 3.2 km/h 12.9 km/h 32 % 0 mm
15:10 13.1 °C -3.2 °C 1024.9 hPa North 3.2 km/h 12.9 km/h 32 % 0 mm
15:15 13.1 °C -3.7 °C 1024.9 hPa NNW 3.2 km/h 8 km/h 31 % 0 mm
15:20 13.1 °C -3.7 °C 1024.9 hPa NNE 4.8 km/h 8 km/h 31 % 0 mm
15:25 13.1 °C -3.2 °C 1024.9 hPa NNW 3.2 km/h 8 km/h 32 % 0 mm
15:30 13.1 °C -2.8 °C 1025.3 hPa Calm   8 km/h 33 % 0 mm
15:35 13.1 °C -2.8 °C 1025.3 hPa Calm   8 km/h 33 % 0 mm
15:40 13.1 °C -2.8 °C 1025.3 hPa NW 1.6 km/h 8 km/h 33 % 0 mm
15:45 13.1 °C -3.7 °C 1024.9 hPa East 4.8 km/h 8 km/h 31 % 0 mm
15:50 13.1 °C -3.2 °C 1024.9 hPa ENE 1.6 km/h 6.4 km/h 32 % 0 mm
16:00 13 °C -3.3 °C 1024.9 hPa NE 3.2 km/h 8 km/h 32 % 0 mm
16:10 13 °C -2.9 °C 1025.3 hPa Calm   6.4 km/h 33 % 0 mm
16:15 12.9 °C -3.4 °C 1024.9 hPa Calm   4.8 km/h 32 % 0 mm
16:20 13 °C -2.9 °C 1025.3 hPa ENE 1.6 km/h 4.8 km/h 33 % 0 mm
16:25 12.9 °C -3 °C 1024.9 hPa Calm   3.2 km/h 33 % 0 mm
16:31 12.9 °C -3 °C 1024.9 hPa North 1.6 km/h 3.2 km/h 33 % 0 mm
16:36 12.8 °C -2.7 °C 1024.9 hPa NW 1.6 km/h 4.8 km/h 34 % 0 mm
16:41 12.7 °C -2.8 °C 1024.9 hPa Calm   6.4 km/h 34 % 0 mm
16:49 12.7 °C -2.4 °C 1024.9 hPa WNW 1.6 km/h 6.4 km/h 35 % 0 mm
16:54 12.7 °C -2.8 °C 1024.9 hPa Calm   6.4 km/h 34 % 0 mm
16:58 12.6 °C -2.9 °C 1024.9 hPa NNE 3.2 km/h 6.4 km/h 34 % 0 mm
16:59 12.6 °C -2.9 °C 1024.9 hPa ENE 1.6 km/h 6.4 km/h 34 % 0 mm
17:03 12.6 °C -2.9 °C 1024.9 hPa NNW 1.6 km/h 6.4 km/h 34 % 0 mm
17:08 12.5 °C -2.9 °C 1024.9 hPa North 1.6 km/h 6.4 km/h 34 % 0 mm
17:13 12.4 °C -2.6 °C 1025.3 hPa NNW 1.6 km/h 6.4 km/h 35 % 0 mm
17:18 12.4 °C -2.3 °C 1025.3 hPa Calm   6.4 km/h 36 % 0 mm
17:23 12.4 °C -2.6 °C 1025.3 hPa Calm   4.8 km/h 35 % 0 mm
17:28 12.4 °C -2.6 °C 1025.3 hPa NE 4.8 km/h 6.4 km/h 35 % 0 mm
17:33 12.3 °C -2.7 °C 1025.3 hPa NNE 1.6 km/h 6.4 km/h 35 % 0 mm
17:39 12.2 °C -2.8 °C 1025.3 hPa North 1.6 km/h 6.4 km/h 35 % 0 mm
17:44 12.1 °C -2.5 °C 1025.3 hPa NW 1.6 km/h 6.4 km/h 36 % 0 mm
17:49 11.9 °C -2.7 °C 1025.3 hPa NE 1.6 km/h 6.4 km/h 36 % 0 mm
17:59 11.6 °C -2.6 °C 1025.3 hPa NNE 1.6 km/h 4.8 km/h 37 % 0 mm
18:09 11.3 °C -2.5 °C 1025.6 hPa Calm   1.6 km/h 38 % 0 mm
18:14 11.2 °C -2.6 °C 1025.3 hPa Calm   3.2 km/h 38 % 0 mm
18:19 11.1 °C -2.3 °C 1025.3 hPa Calm   3.2 km/h 39 % 0 mm
18:29 10.8 °C -1.9 °C 1025.3 hPa Calm   3.2 km/h 41 % 0 mm
18:34 10.7 °C -2 °C 1025.3 hPa Calm   3.2 km/h 41 % 0 mm
18:39 10.5 °C -1.9 °C 1025.3 hPa Calm   1.6 km/h 42 % 0 mm
18:44 10.4 °C -2 °C 1025.3 hPa Calm   1.6 km/h 42 % 0 mm
18:49 10.3 °C -1.7 °C 1025.3 hPa Calm   1.6 km/h 43 % 0 mm
18:54 10.2 °C -1.8 °C 1025.3 hPa Calm   1.6 km/h 43 % 0 mm
18:59 10.2 °C -1.8 °C 1025.3 hPa Calm   1.6 km/h 43 % 0 mm
19:04 10.2 °C -1.8 °C 1025.3 hPa Calm   1.6 km/h 43 % 0 mm
19:14 10.2 °C -2.1 °C 1024.9 hPa Calm   1.6 km/h 42 % 0 mm
19:24 10.2 °C -2.1 °C 1024.9 hPa Calm   1.6 km/h 42 % 0 mm
19:29 10.2 °C -1.8 °C 1024.6 hPa Calm   1.6 km/h 43 % 0 mm
19:34 10.1 °C -1.6 °C 1024.9 hPa Calm   1.6 km/h 44 % 0 mm
19:39 10.1 °C -1.6 °C 1024.9 hPa Calm   1.6 km/h 44 % 0 mm
19:44 10.1 °C -1.6 °C 1025.3 hPa Calm   1.6 km/h 44 % 0 mm
19:49 10.1 °C -1.3 °C 1025.3 hPa Calm   1.6 km/h 45 % 0 mm
19:55 10 °C -1.1 °C 1025.3 hPa Calm   1.6 km/h 46 % 0 mm
20:00 9.8 °C -1.3 °C 1025.3 hPa Calm   1.6 km/h 46 % 0 mm
20:05 9.8 °C -1 °C 1025.3 hPa Calm     47 % 0 mm
20:10 9.7 °C -0.5 °C 1025.3 hPa Calm     49 % 0 mm
20:15 9.7 °C -0.5 °C 1025.6 hPa Calm   1.6 km/h 49 % 0 mm
20:20 9.6 °C -0.3 °C 1025.6 hPa Calm   1.6 km/h 50 % 0 mm
20:21 9.5 °C -0.4 °C 1025.6 hPa Calm   1.6 km/h 50 % 0 mm
20:26 9.4 °C -0.5 °C 1026 hPa Calm   1.6 km/h 50 % 0 mm
20:31 9.3 °C -0.1 °C 1026 hPa Calm   1.6 km/h 52 % 0 mm
20:36 9.2 °C 0.1 °C 1026 hPa Calm     53 % 0 mm
20:41 9.1 °C 0.3 °C 1026.3 hPa Calm     54 % 0 mm
20:46 9.1 °C 0.3 °C 1026.3 hPa Calm     54 % 0 mm
20:51 9.1 °C 0.3 °C 1026.3 hPa Calm   1.6 km/h 54 % 0 mm
20:56 9.1 °C 0.5 °C 1026.3 hPa Calm   1.6 km/h 55 % 0 mm
21:01 9.1 °C 0.5 °C 1026.6 hPa Calm   1.6 km/h 55 % 0 mm
21:06 9.1 °C 0.5 °C 1026.6 hPa Calm   1.6 km/h 55 % 0 mm
21:12 9.2 °C 0.9 °C 1026.6 hPa Calm   1.6 km/h 56 % 0 mm
21:17 9.2 °C 1.4 °C 1026.6 hPa Calm   1.6 km/h 58 % 0 mm
21:22 9.2 °C 1.1 °C 1026.6 hPa Calm   1.6 km/h 57 % 0 mm
21:26 9.1 °C 0.8 °C 1026.6 hPa Calm   1.6 km/h 56 % 0 mm
21:28 9.1 °C 0.8 °C 1027 hPa Calm   1.6 km/h 56 % 0 mm
21:33 9.2 °C 0.9 °C 1027 hPa Calm   1.6 km/h 56 % 0 mm
21:38 9.2 °C 0.6 °C 1027 hPa Calm   1.6 km/h 55 % 0 mm
21:43 9.2 °C 0.6 °C 1027 hPa Calm   1.6 km/h 55 % 0 mm
21:48 9.3 °C 0.5 °C 1027 hPa Calm   1.6 km/h 54 % 0 mm
21:53 9.4 °C 0.3 °C 1027 hPa NNW 1.6 km/h 1.6 km/h 53 % 0 mm
21:58 9.6 °C 0.5 °C 1027 hPa Calm   3.2 km/h 53 % 0 mm
22:04 9.6 °C 0.2 °C 1027 hPa Calm   3.2 km/h 52 % 0 mm
22:09 9.6 °C 0 °C 1027 hPa WNW 1.6 km/h 3.2 km/h 51 % 0 mm
22:14 9.7 °C -0.2 °C 1027 hPa Calm   3.2 km/h 50 % 0 mm
22:19 9.6 °C -0.3 °C 1027 hPa Calm   3.2 km/h 50 % 0 mm
22:24 9.6 °C -0.6 °C 1027 hPa Calm   3.2 km/h 49 % 0 mm
22:34 9.6 °C -0.6 °C 1026.6 hPa Calm   3.2 km/h 49 % 0 mm
22:39 9.6 °C -0.6 °C 1026.6 hPa NW 3.2 km/h 3.2 km/h 49 % 0 mm
22:44 9.6 °C -0.6 °C 1026.6 hPa NNW 1.6 km/h 3.2 km/h 49 % 0 mm
22:49 9.6 °C -0.9 °C 1026.6 hPa NW 1.6 km/h 3.2 km/h 48 % 0 mm
22:54 9.6 °C -0.9 °C 1026.6 hPa NNW 1.6 km/h 4.8 km/h 48 % 0 mm
22:59 9.6 °C -0.6 °C 1026.6 hPa NNW 1.6 km/h 4.8 km/h 49 % 0 mm
23:04 9.5 °C -0.7 °C 1026.3 hPa Calm   4.8 km/h 49 % 0 mm
23:09 9.5 °C -0.7 °C 1026 hPa Calm   4.8 km/h 49 % 0 mm
23:14 9.4 °C -0.8 °C 1026 hPa NNW 1.6 km/h 3.2 km/h 49 % 0 mm
23:20 9.4 °C -0.8 °C 1026 hPa NW 1.6 km/h 3.2 km/h 49 % 0 mm
23:25 9.5 °C -0.7 °C 1026 hPa North 1.6 km/h 4.8 km/h 49 % 0 mm
23:26 9.5 °C -0.7 °C 1026 hPa NW 1.6 km/h 4.8 km/h 49 % 0 mm
23:31 9.5 °C -1 °C 1026 hPa West 1.6 km/h 4.8 km/h 48 % 0 mm
23:41 9.6 °C -1.2 °C 1026 hPa Calm   4.8 km/h 47 % 0 mm
23:46 9.6 °C -1.2 °C 1026 hPa Calm   4.8 km/h 47 % 0 mm
23:51 9.6 °C -1.5 °C 1026.3 hPa Calm   4.8 km/h 46 % 0 mm
23:56 9.6 °C -1.2 °C 1026.3 hPa NW 1.6 km/h 1.6 km/h 47 % 0 mm
Spring, Texas: Villages of Bridgestone
Compliments of Weather Underground - 2.75 mb

Script developed by  Jim McMurry - jmcmurry@mwt.net Adapted for the template by  Wim van der Kuil - Leuven-Template.eu

You find our weather info also at:

UK Metoffice

WeatherCloud

Weather Underground

Mid-South Weather Network

AWEKAS

Citizen Weather Observer Program (CWOP)

HAMweather, WeatherForYou, PWS Weather

Equipment we use:

Weather-station
Davis Vantage Vue

Weather-program
Meteohub

Weather-server
Debian 7.9 x86 (Guest)

Provider
DreamHost

Davis Vantage Vue

Meteohub

Debian 7.9 x86 (Guest)

DreamHost